sensor_id;sensor_type;location;lat;lon;timestamp;temperature;humidity
1786;DHT22;890;48.158;11.540;2023-04-29T00:01:06;12.10;99.90
1786;DHT22;890;48.158;11.540;2023-04-29T00:03:31;12.00;99.90
1786;DHT22;890;48.158;11.540;2023-04-29T00:05:57;11.90;99.90
1786;DHT22;890;48.158;11.540;2023-04-29T00:08:23;12.00;99.90
1786;DHT22;890;48.158;11.540;2023-04-29T00:10:49;11.80;99.90
1786;DHT22;890;48.158;11.540;2023-04-29T00:13:15;11.90;99.90
1786;DHT22;890;48.158;11.540;2023-04-29T00:15:41;11.90;99.90
1786;DHT22;890;48.158;11.540;2023-04-29T00:18:07;11.90;99.90
1786;DHT22;890;48.158;11.540;2023-04-29T00:20:33;11.90;99.90
1786;DHT22;890;48.158;11.540;2023-04-29T00:22:59;12.00;99.90
1786;DHT22;890;48.158;11.540;2023-04-29T00:25:24;12.00;99.90
1786;DHT22;890;48.158;11.540;2023-04-29T00:27:50;12.10;99.90
1786;DHT22;890;48.158;11.540;2023-04-29T00:30:16;12.20;99.90
1786;DHT22;890;48.158;11.540;2023-04-29T00:32:41;12.20;99.90
1786;DHT22;890;48.158;11.540;2023-04-29T00:35:09;12.20;99.90
1786;DHT22;890;48.158;11.540;2023-04-29T00:37:35;12.20;99.90
1786;DHT22;890;48.158;11.540;2023-04-29T00:40:00;12.20;99.90
1786;DHT22;890;48.158;11.540;2023-04-29T00:42:27;12.20;99.90
1786;DHT22;890;48.158;11.540;2023-04-29T00:44:53;12.40;99.90
1786;DHT22;890;48.158;11.540;2023-04-29T00:47:19;12.40;99.90
1786;DHT22;890;48.158;11.540;2023-04-29T00:49:44;12.30;99.90
1786;DHT22;890;48.158;11.540;2023-04-29T00:52:10;12.40;99.90
1786;DHT22;890;48.158;11.540;2023-04-29T00:54:38;12.40;99.90
1786;DHT22;890;48.158;11.540;2023-04-29T00:57:04;12.40;99.90
1786;DHT22;890;48.158;11.540;2023-04-29T00:59:31;12.30;99.90
1786;DHT22;890;48.158;11.540;2023-04-29T01:02:01;12.30;99.90
1786;DHT22;890;48.158;11.540;2023-04-29T01:04:28;12.30;99.90
1786;DHT22;890;48.158;11.540;2023-04-29T01:07:17;12.30;99.90
1786;DHT22;890;48.158;11.540;2023-04-29T01:12:49;12.20;99.90
1786;DHT22;890;48.158;11.540;2023-04-29T01:15:25;12.20;99.90
1786;DHT22;890;48.158;11.540;2023-04-29T01:17:59;12.20;99.90
1786;DHT22;890;48.158;11.540;2023-04-29T01:20:25;12.20;99.90
1786;DHT22;890;48.158;11.540;2023-04-29T01:22:51;12.20;99.90
1786;DHT22;890;48.158;11.540;2023-04-29T01:25:17;12.20;99.90
1786;DHT22;890;48.158;11.540;2023-04-29T01:27:56;12.30;99.90
1786;DHT22;890;48.158;11.540;2023-04-29T01:30:30;12.20;99.90
1786;DHT22;890;48.158;11.540;2023-04-29T01:33:09;12.30;99.90
1786;DHT22;890;48.158;11.540;2023-04-29T01:38:25;12.40;99.90
1786;DHT22;890;48.158;11.540;2023-04-29T01:43:55;12.40;99.90
1786;DHT22;890;48.158;11.540;2023-04-29T01:46:23;12.40;99.90
1786;DHT22;890;48.158;11.540;2023-04-29T01:48:52;12.50;99.90
1786;DHT22;890;48.158;11.540;2023-04-29T01:51:18;12.50;99.90
1786;DHT22;890;48.158;11.540;2023-04-29T01:53:44;12.50;99.90
1786;DHT22;890;48.158;11.540;2023-04-29T01:56:09;12.50;99.90
1786;DHT22;890;48.158;11.540;2023-04-29T01:58:35;12.50;99.90
1786;DHT22;890;48.158;11.540;2023-04-29T02:01:00;12.50;99.90
1786;DHT22;890;48.158;11.540;2023-04-29T02:03:26;12.50;99.90
1786;DHT22;890;48.158;11.540;2023-04-29T02:05:51;12.60;99.90
1786;DHT22;890;48.158;11.540;2023-04-29T02:08:17;12.60;99.90
1786;DHT22;890;48.158;11.540;2023-04-29T02:10:57;12.70;99.90
1786;DHT22;890;48.158;11.540;2023-04-29T02:13:23;12.70;99.90
1786;DHT22;890;48.158;11.540;2023-04-29T02:15:49;12.80;99.90
1786;DHT22;890;48.158;11.540;2023-04-29T02:18:14;12.80;99.90
1786;DHT22;890;48.158;11.540;2023-04-29T02:20:40;12.80;99.90
1786;DHT22;890;48.158;11.540;2023-04-29T02:23:06;12.80;99.90
1786;DHT22;890;48.158;11.540;2023-04-29T02:25:32;12.90;99.90
1786;DHT22;890;48.158;11.540;2023-04-29T02:27:57;12.90;99.90
1786;DHT22;890;48.158;11.540;2023-04-29T02:30:23;12.90;99.90
1786;DHT22;890;48.158;11.540;2023-04-29T02:32:48;12.90;99.90
1786;DHT22;890;48.158;11.540;2023-04-29T02:35:14;12.90;99.90
1786;DHT22;890;48.158;11.540;2023-04-29T02:37:39;12.90;99.90
1786;DHT22;890;48.158;11.540;2023-04-29T02:40:05;12.90;99.90
1786;DHT22;890;48.158;11.540;2023-04-29T02:42:31;12.90;99.90
1786;DHT22;890;48.158;11.540;2023-04-29T02:44:57;12.90;99.90
1786;DHT22;890;48.158;11.540;2023-04-29T02:47:22;12.90;99.90
1786;DHT22;890;48.158;11.540;2023-04-29T02:49:48;12.90;99.90
1786;DHT22;890;48.158;11.540;2023-04-29T02:52:14;12.90;99.90
1786;DHT22;890;48.158;11.540;2023-04-29T02:54:41;12.90;99.90
1786;DHT22;890;48.158;11.540;2023-04-29T02:57:07;12.90;99.90
1786;DHT22;890;48.158;11.540;2023-04-29T02:59:33;13.00;99.90
1786;DHT22;890;48.158;11.540;2023-04-29T03:01:59;12.90;99.90
1786;DHT22;890;48.158;11.540;2023-04-29T03:04:26;13.00;99.90
1786;DHT22;890;48.158;11.540;2023-04-29T03:06:54;13.00;99.90
1786;DHT22;890;48.158;11.540;2023-04-29T03:09:20;13.00;99.90
1786;DHT22;890;48.158;11.540;2023-04-29T03:11:46;13.00;99.90
1786;DHT22;890;48.158;11.540;2023-04-29T03:14:12;13.10;99.90
1786;DHT22;890;48.158;11.540;2023-04-29T03:16:37;13.10;99.90
1786;DHT22;890;48.158;11.540;2023-04-29T03:19:03;13.10;99.90
1786;DHT22;890;48.158;11.540;2023-04-29T03:21:28;13.20;99.90
1786;DHT22;890;48.158;11.540;2023-04-29T03:23:54;13.10;99.90
1786;DHT22;890;48.158;11.540;2023-04-29T03:26:20;13.10;99.90
1786;DHT22;890;48.158;11.540;2023-04-29T03:28:48;13.10;99.90
1786;DHT22;890;48.158;11.540;2023-04-29T03:31:14;13.10;99.90
1786;DHT22;890;48.158;11.540;2023-04-29T03:33:41;13.10;99.90
1786;DHT22;890;48.158;11.540;2023-04-29T03:36:06;13.00;99.90
1786;DHT22;890;48.158;11.540;2023-04-29T03:38:33;13.10;99.90
1786;DHT22;890;48.158;11.540;2023-04-29T03:40:58;13.10;99.90
1786;DHT22;890;48.158;11.540;2023-04-29T03:43:24;13.10;99.90
1786;DHT22;890;48.158;11.540;2023-04-29T03:45:50;13.10;99.90
1786;DHT22;890;48.158;11.540;2023-04-29T03:48:15;13.10;99.90
1786;DHT22;890;48.158;11.540;2023-04-29T03:50:41;13.20;99.90
1786;DHT22;890;48.158;11.540;2023-04-29T03:53:07;13.20;99.90
1786;DHT22;890;48.158;11.540;2023-04-29T03:55:32;13.10;99.90
1786;DHT22;890;48.158;11.540;2023-04-29T03:57:58;13.10;99.90
1786;DHT22;890;48.158;11.540;2023-04-29T04:00:24;13.10;99.90
1786;DHT22;890;48.158;11.540;2023-04-29T04:02:51;13.10;99.90
1786;DHT22;890;48.158;11.540;2023-04-29T04:05:16;13.20;99.90
1786;DHT22;890;48.158;11.540;2023-04-29T04:07:45;13.20;99.90
1786;DHT22;890;48.158;11.540;2023-04-29T04:10:11;13.20;99.90
1786;DHT22;890;48.158;11.540;2023-04-29T04:12:36;13.20;99.90
1786;DHT22;890;48.158;11.540;2023-04-29T04:15:02;13.20;99.90
1786;DHT22;890;48.158;11.540;2023-04-29T04:17:28;13.20;99.90
1786;DHT22;890;48.158;11.540;2023-04-29T04:19:54;13.20;99.90
1786;DHT22;890;48.158;11.540;2023-04-29T04:22:20;13.20;99.90
1786;DHT22;890;48.158;11.540;2023-04-29T04:24:45;13.20;99.90
1786;DHT22;890;48.158;11.540;2023-04-29T04:27:11;13.20;99.90
1786;DHT22;890;48.158;11.540;2023-04-29T04:29:37;13.30;99.90
1786;DHT22;890;48.158;11.540;2023-04-29T04:32:04;13.30;99.90
1786;DHT22;890;48.158;11.540;2023-04-29T04:34:29;13.30;99.90
1786;DHT22;890;48.158;11.540;2023-04-29T04:36:55;13.30;99.90
1786;DHT22;890;48.158;11.540;2023-04-29T04:39:21;13.30;99.90
1786;DHT22;890;48.158;11.540;2023-04-29T04:41:46;13.30;99.90
1786;DHT22;890;48.158;11.540;2023-04-29T04:44:12;13.30;99.90
1786;DHT22;890;48.158;11.540;2023-04-29T04:46:38;13.30;99.90
1786;DHT22;890;48.158;11.540;2023-04-29T04:49:04;13.40;99.90
1786;DHT22;890;48.158;11.540;2023-04-29T04:51:30;13.50;99.90
1786;DHT22;890;48.158;11.540;2023-04-29T04:53:55;13.40;99.90
1786;DHT22;890;48.158;11.540;2023-04-29T04:56:21;13.50;99.90
1786;DHT22;890;48.158;11.540;2023-04-29T04:58:47;13.50;99.90
1786;DHT22;890;48.158;11.540;2023-04-29T05:01:12;13.50;99.90
1786;DHT22;890;48.158;11.540;2023-04-29T05:03:38;13.50;99.90
1786;DHT22;890;48.158;11.540;2023-04-29T05:06:03;13.50;99.90
1786;DHT22;890;48.158;11.540;2023-04-29T05:08:29;13.60;99.90
1786;DHT22;890;48.158;11.540;2023-04-29T05:10:54;13.50;99.90
1786;DHT22;890;48.158;11.540;2023-04-29T05:13:21;13.50;99.90
1786;DHT22;890;48.158;11.540;2023-04-29T05:15:46;13.60;99.90
1786;DHT22;890;48.158;11.540;2023-04-29T05:18:12;13.60;99.90
1786;DHT22;890;48.158;11.540;2023-04-29T05:20:37;13.70;99.90
1786;DHT22;890;48.158;11.540;2023-04-29T05:23:03;13.70;99.90
1786;DHT22;890;48.158;11.540;2023-04-29T05:25:29;13.70;99.90
1786;DHT22;890;48.158;11.540;2023-04-29T05:27:54;13.80;99.90
1786;DHT22;890;48.158;11.540;2023-04-29T05:30:21;13.80;99.90
1786;DHT22;890;48.158;11.540;2023-04-29T05:32:47;14.10;99.90
1786;DHT22;890;48.158;11.540;2023-04-29T05:35:16;14.00;99.90
1786;DHT22;890;48.158;11.540;2023-04-29T05:37:41;14.10;99.90
1786;DHT22;890;48.158;11.540;2023-04-29T05:40:08;14.10;99.90
1786;DHT22;890;48.158;11.540;2023-04-29T05:42:34;14.10;99.90
1786;DHT22;890;48.158;11.540;2023-04-29T05:44:59;14.20;99.90
1786;DHT22;890;48.158;11.540;2023-04-29T05:47:25;14.20;99.90
1786;DHT22;890;48.158;11.540;2023-04-29T05:49:51;14.30;99.90
1786;DHT22;890;48.158;11.540;2023-04-29T05:52:16;14.30;99.90
1786;DHT22;890;48.158;11.540;2023-04-29T05:54:42;14.30;99.90
1786;DHT22;890;48.158;11.540;2023-04-29T05:57:07;14.20;99.90
1786;DHT22;890;48.158;11.540;2023-04-29T05:59:33;14.10;99.90
1786;DHT22;890;48.158;11.540;2023-04-29T06:01:59;14.20;99.90
1786;DHT22;890;48.158;11.540;2023-04-29T06:04:25;14.20;99.90
1786;DHT22;890;48.158;11.540;2023-04-29T06:06:52;14.30;99.90
1786;DHT22;890;48.158;11.540;2023-04-29T06:09:19;14.50;99.90
1786;DHT22;890;48.158;11.540;2023-04-29T06:11:47;14.70;99.90
1786;DHT22;890;48.158;11.540;2023-04-29T06:14:13;14.60;99.90
1786;DHT22;890;48.158;11.540;2023-04-29T06:16:39;14.60;99.90
1786;DHT22;890;48.158;11.540;2023-04-29T06:19:05;14.70;99.90
1786;DHT22;890;48.158;11.540;2023-04-29T06:21:31;14.70;99.90
1786;DHT22;890;48.158;11.540;2023-04-29T06:23:57;14.80;99.90
1786;DHT22;890;48.158;11.540;2023-04-29T06:26:22;14.90;99.90
1786;DHT22;890;48.158;11.540;2023-04-29T06:28:48;14.90;99.90
1786;DHT22;890;48.158;11.540;2023-04-29T06:31:14;14.80;99.90
1786;DHT22;890;48.158;11.540;2023-04-29T06:33:40;15.80;99.90
1786;DHT22;890;48.158;11.540;2023-04-29T06:36:06;14.90;99.90
1786;DHT22;890;48.158;11.540;2023-04-29T06:38:32;14.90;99.90
1786;DHT22;890;48.158;11.540;2023-04-29T06:40:58;15.00;99.90
1786;DHT22;890;48.158;11.540;2023-04-29T06:43:26;15.10;99.90
1786;DHT22;890;48.158;11.540;2023-04-29T06:45:52;15.40;99.90
1786;DHT22;890;48.158;11.540;2023-04-29T06:48:17;15.30;99.90
1786;DHT22;890;48.158;11.540;2023-04-29T06:50:51;15.20;99.90
1786;DHT22;890;48.158;11.540;2023-04-29T06:53:17;15.10;99.90
1786;DHT22;890;48.158;11.540;2023-04-29T06:55:43;15.40;99.90
1786;DHT22;890;48.158;11.540;2023-04-29T06:58:17;15.30;99.90
1786;DHT22;890;48.158;11.540;2023-04-29T07:00:47;15.30;99.90
1786;DHT22;890;48.158;11.540;2023-04-29T07:03:13;15.30;99.90
1786;DHT22;890;48.158;11.540;2023-04-29T07:05:39;15.40;99.90
1786;DHT22;890;48.158;11.540;2023-04-29T07:08:07;15.50;99.90
1786;DHT22;890;48.158;11.540;2023-04-29T07:10:33;15.60;99.90
1786;DHT22;890;48.158;11.540;2023-04-29T07:12:59;15.60;99.90
1786;DHT22;890;48.158;11.540;2023-04-29T07:15:25;15.80;99.90
1786;DHT22;890;48.158;11.540;2023-04-29T07:17:51;15.80;99.90
1786;DHT22;890;48.158;11.540;2023-04-29T07:20:17;15.90;99.90
1786;DHT22;890;48.158;11.540;2023-04-29T07:22:42;16.00;99.90
1786;DHT22;890;48.158;11.540;2023-04-29T07:25:08;16.00;99.90
1786;DHT22;890;48.158;11.540;2023-04-29T07:27:35;16.20;99.90
1786;DHT22;890;48.158;11.540;2023-04-29T07:30:01;16.30;99.90
1786;DHT22;890;48.158;11.540;2023-04-29T07:32:27;16.40;99.90
1786;DHT22;890;48.158;11.540;2023-04-29T07:34:53;16.40;99.90
1786;DHT22;890;48.158;11.540;2023-04-29T07:37:19;16.40;99.90
1786;DHT22;890;48.158;11.540;2023-04-29T07:39:44;16.50;99.90
1786;DHT22;890;48.158;11.540;2023-04-29T07:42:10;16.40;99.90
1786;DHT22;890;48.158;11.540;2023-04-29T07:44:36;16.50;99.90
1786;DHT22;890;48.158;11.540;2023-04-29T07:47:01;16.80;99.90
1786;DHT22;890;48.158;11.540;2023-04-29T07:49:27;17.00;99.90
1786;DHT22;890;48.158;11.540;2023-04-29T07:51:53;17.20;99.90
1786;DHT22;890;48.158;11.540;2023-04-29T07:54:19;17.20;99.90
1786;DHT22;890;48.158;11.540;2023-04-29T07:56:45;17.00;99.90
1786;DHT22;890;48.158;11.540;2023-04-29T07:59:10;17.00;99.90
1786;DHT22;890;48.158;11.540;2023-04-29T08:01:36;16.90;99.90
1786;DHT22;890;48.158;11.540;2023-04-29T08:04:02;16.80;99.90
1786;DHT22;890;48.158;11.540;2023-04-29T08:06:28;16.80;99.90
1786;DHT22;890;48.158;11.540;2023-04-29T08:08:55;16.90;99.50
1786;DHT22;890;48.158;11.540;2023-04-29T08:11:21;17.10;99.30
1786;DHT22;890;48.158;11.540;2023-04-29T08:13:49;17.30;99.30
1786;DHT22;890;48.158;11.540;2023-04-29T08:16:14;17.30;99.10
1786;DHT22;890;48.158;11.540;2023-04-29T08:18:40;17.50;98.20
1786;DHT22;890;48.158;11.540;2023-04-29T08:21:06;17.20;97.40
1786;DHT22;890;48.158;11.540;2023-04-29T08:23:33;17.10;97.00
1786;DHT22;890;48.158;11.540;2023-04-29T08:26:00;17.00;96.80
1786;DHT22;890;48.158;11.540;2023-04-29T08:28:25;17.10;96.60
1786;DHT22;890;48.158;11.540;2023-04-29T08:30:52;17.30;96.70
1786;DHT22;890;48.158;11.540;2023-04-29T08:33:17;17.50;96.50
1786;DHT22;890;48.158;11.540;2023-04-29T08:35:43;17.60;96.20
1786;DHT22;890;48.158;11.540;2023-04-29T08:38:09;17.60;95.40
1786;DHT22;890;48.158;11.540;2023-04-29T08:40:44;17.50;94.60
1786;DHT22;890;48.158;11.540;2023-04-29T08:43:13;17.60;94.30
1786;DHT22;890;48.158;11.540;2023-04-29T08:45:41;17.80;94.10
1786;DHT22;890;48.158;11.540;2023-04-29T08:48:07;18.00;93.80
1786;DHT22;890;48.158;11.540;2023-04-29T08:50:38;18.10;93.70
1786;DHT22;890;48.158;11.540;2023-04-29T08:53:08;18.30;92.60
1786;DHT22;890;48.158;11.540;2023-04-29T08:55:44;18.40;91.50
1786;DHT22;890;48.158;11.540;2023-04-29T08:58:12;18.50;91.20
1786;DHT22;890;48.158;11.540;2023-04-29T09:00:42;18.60;91.20
1786;DHT22;890;48.158;11.540;2023-04-29T09:05:37;18.20;90.00
1786;DHT22;890;48.158;11.540;2023-04-29T09:08:06;18.10;89.10
1786;DHT22;890;48.158;11.540;2023-04-29T09:10:34;17.90;89.00
1786;DHT22;890;48.158;11.540;2023-04-29T09:13:00;17.90;90.20
1786;DHT22;890;48.158;11.540;2023-04-29T09:15:26;18.10;90.40
1786;DHT22;890;48.158;11.540;2023-04-29T09:17:51;18.30;89.90
1786;DHT22;890;48.158;11.540;2023-04-29T09:22:58;18.50;88.60
1786;DHT22;890;48.158;11.540;2023-04-29T09:25:24;18.60;87.60
1786;DHT22;890;48.158;11.540;2023-04-29T09:27:50;18.70;87.00
1786;DHT22;890;48.158;11.540;2023-04-29T09:30:16;18.50;85.00
1786;DHT22;890;48.158;11.540;2023-04-29T09:32:42;18.20;83.50
1786;DHT22;890;48.158;11.540;2023-04-29T09:35:26;17.90;83.80
1786;DHT22;890;48.158;11.540;2023-04-29T09:37:53;17.90;91.10
1786;DHT22;890;48.158;11.540;2023-04-29T09:40:39;18.90;97.90
1786;DHT22;890;48.158;11.540;2023-04-29T09:43:14;19.30;94.20
1786;DHT22;890;48.158;11.540;2023-04-29T09:45:43;20.30;99.50
1786;DHT22;890;48.158;11.540;2023-04-29T09:48:10;21.40;97.00
1786;DHT22;890;48.158;11.540;2023-04-29T09:50:37;21.70;88.00
1786;DHT22;890;48.158;11.540;2023-04-29T09:53:04;21.50;80.10
1786;DHT22;890;48.158;11.540;2023-04-29T09:55:31;21.00;80.00
1786;DHT22;890;48.158;11.540;2023-04-29T09:57:56;21.60;87.90
1786;DHT22;890;48.158;11.540;2023-04-29T10:00:23;21.90;86.40
1786;DHT22;890;48.158;11.540;2023-04-29T10:02:50;22.40;83.60
1786;DHT22;890;48.158;11.540;2023-04-29T10:05:18;22.70;77.70
1786;DHT22;890;48.158;11.540;2023-04-29T10:07:48;23.00;75.00
1786;DHT22;890;48.158;11.540;2023-04-29T10:10:14;22.70;70.70
1786;DHT22;890;48.158;11.540;2023-04-29T10:12:41;22.30;68.80
1786;DHT22;890;48.158;11.540;2023-04-29T10:15:11;21.80;68.30
1786;DHT22;890;48.158;11.540;2023-04-29T10:17:47;21.10;68.50
1786;DHT22;890;48.158;11.540;2023-04-29T10:20:18;20.30;69.00
1786;DHT22;890;48.158;11.540;2023-04-29T10:22:46;19.60;69.60
1786;DHT22;890;48.158;11.540;2023-04-29T10:25:15;19.30;70.30
1786;DHT22;890;48.158;11.540;2023-04-29T10:27:42;19.00;72.70
1786;DHT22;890;48.158;11.540;2023-04-29T10:30:11;19.30;75.20
1786;DHT22;890;48.158;11.540;2023-04-29T10:32:40;19.40;73.00
1786;DHT22;890;48.158;11.540;2023-04-29T10:35:08;19.40;73.20
1786;DHT22;890;48.158;11.540;2023-04-29T10:37:35;19.80;77.10
1786;DHT22;890;48.158;11.540;2023-04-29T10:40:26;20.70;78.50
1786;DHT22;890;48.158;11.540;2023-04-29T10:42:55;21.70;81.50
1786;DHT22;890;48.158;11.540;2023-04-29T10:45:26;23.10;82.90
1786;DHT22;890;48.158;11.540;2023-04-29T10:50:32;23.80;67.00
1786;DHT22;890;48.158;11.540;2023-04-29T10:53:03;23.30;63.70
1786;DHT22;890;48.158;11.540;2023-04-29T10:55:29;22.40;61.90
1786;DHT22;890;48.158;11.540;2023-04-29T10:57:56;22.40;67.10
1786;DHT22;890;48.158;11.540;2023-04-29T11:00:26;22.90;68.40
1786;DHT22;890;48.158;11.540;2023-04-29T11:03:04;23.70;66.80
1786;DHT22;890;48.158;11.540;2023-04-29T11:05:35;23.50;63.00
1786;DHT22;890;48.158;11.540;2023-04-29T11:10:47;22.80;63.90
1786;DHT22;890;48.158;11.540;2023-04-29T11:13:27;23.60;68.10
1786;DHT22;890;48.158;11.540;2023-04-29T11:16:06;24.50;66.10
1786;DHT22;890;48.158;11.540;2023-04-29T11:18:33;25.20;63.20
1786;DHT22;890;48.158;11.540;2023-04-29T11:23:34;26.00;59.20
1786;DHT22;890;48.158;11.540;2023-04-29T11:26:03;26.00;56.90
1786;DHT22;890;48.158;11.540;2023-04-29T11:28:30;26.20;59.00
1786;DHT22;890;48.158;11.540;2023-04-29T11:30:56;26.30;56.70
1786;DHT22;890;48.158;11.540;2023-04-29T11:33:23;26.00;54.60
1786;DHT22;890;48.158;11.540;2023-04-29T11:35:49;25.30;53.00
1786;DHT22;890;48.158;11.540;2023-04-29T11:38:17;24.50;53.30
1786;DHT22;890;48.158;11.540;2023-04-29T11:40:48;24.30;55.40
1786;DHT22;890;48.158;11.540;2023-04-29T11:43:18;24.30;56.50
1786;DHT22;890;48.158;11.540;2023-04-29T11:45:45;24.60;57.30
1786;DHT22;890;48.158;11.540;2023-04-29T11:48:23;25.30;56.50
1786;DHT22;890;48.158;11.540;2023-04-29T11:50:56;25.10;55.10
1786;DHT22;890;48.158;11.540;2023-04-29T11:53:26;25.30;56.30
1786;DHT22;890;48.158;11.540;2023-04-29T11:55:55;26.10;55.80
1786;DHT22;890;48.158;11.540;2023-04-29T11:58:21;26.30;53.10
1786;DHT22;890;48.158;11.540;2023-04-29T12:00:48;25.40;51.40
1786;DHT22;890;48.158;11.540;2023-04-29T12:03:14;24.40;51.20
1786;DHT22;890;48.158;11.540;2023-04-29T12:08:12;23.30;51.80
1786;DHT22;890;48.158;11.540;2023-04-29T12:10:37;23.60;51.00
1786;DHT22;890;48.158;11.540;2023-04-29T12:13:03;23.10;51.20
1786;DHT22;890;48.158;11.540;2023-04-29T12:15:29;23.00;51.90
1786;DHT22;890;48.158;11.540;2023-04-29T12:17:55;23.20;52.20
1786;DHT22;890;48.158;11.540;2023-04-29T12:20:21;23.20;52.10
1786;DHT22;890;48.158;11.540;2023-04-29T12:22:47;23.00;50.90
1786;DHT22;890;48.158;11.540;2023-04-29T12:25:14;22.80;50.30
1786;DHT22;890;48.158;11.540;2023-04-29T12:27:40;22.30;50.00
1786;DHT22;890;48.158;11.540;2023-04-29T12:30:10;21.90;50.90
1786;DHT22;890;48.158;11.540;2023-04-29T12:32:37;21.90;51.70
1786;DHT22;890;48.158;11.540;2023-04-29T12:35:02;21.80;51.60
1786;DHT22;890;48.158;11.540;2023-04-29T12:37:28;21.70;51.60
1786;DHT22;890;48.158;11.540;2023-04-29T12:39:55;21.40;51.70
1786;DHT22;890;48.158;11.540;2023-04-29T12:42:21;21.00;52.10
1786;DHT22;890;48.158;11.540;2023-04-29T12:44:47;20.80;52.20
1786;DHT22;890;48.158;11.540;2023-04-29T12:47:13;20.70;52.60
1786;DHT22;890;48.158;11.540;2023-04-29T12:49:44;20.60;52.90
1786;DHT22;890;48.158;11.540;2023-04-29T12:52:10;20.40;53.60
1786;DHT22;890;48.158;11.540;2023-04-29T12:54:37;20.20;53.20
1786;DHT22;890;48.158;11.540;2023-04-29T12:57:05;20.10;53.90
1786;DHT22;890;48.158;11.540;2023-04-29T12:59:31;19.90;53.60
1786;DHT22;890;48.158;11.540;2023-04-29T13:01:56;20.00;53.80
1786;DHT22;890;48.158;11.540;2023-04-29T13:04:22;20.00;53.80
1786;DHT22;890;48.158;11.540;2023-04-29T13:06:47;19.90;53.70
1786;DHT22;890;48.158;11.540;2023-04-29T13:09:13;19.90;53.80
1786;DHT22;890;48.158;11.540;2023-04-29T13:11:38;19.90;54.00
1786;DHT22;890;48.158;11.540;2023-04-29T13:14:05;20.10;53.90
1786;DHT22;890;48.158;11.540;2023-04-29T13:16:31;19.90;53.50
1786;DHT22;890;48.158;11.540;2023-04-29T13:18:58;19.80;53.90
1786;DHT22;890;48.158;11.540;2023-04-29T13:21:23;19.70;53.80
1786;DHT22;890;48.158;11.540;2023-04-29T13:23:49;19.60;53.90
1786;DHT22;890;48.158;11.540;2023-04-29T13:26:16;19.50;54.10
1786;DHT22;890;48.158;11.540;2023-04-29T13:28:42;19.60;54.10
1786;DHT22;890;48.158;11.540;2023-04-29T13:31:08;19.60;53.70
1786;DHT22;890;48.158;11.540;2023-04-29T13:33:33;19.60;53.80
1786;DHT22;890;48.158;11.540;2023-04-29T13:35:59;19.60;53.90
1786;DHT22;890;48.158;11.540;2023-04-29T13:38:25;19.50;53.90
1786;DHT22;890;48.158;11.540;2023-04-29T13:40:50;19.40;53.80
1786;DHT22;890;48.158;11.540;2023-04-29T13:43:16;19.40;54.10
1786;DHT22;890;48.158;11.540;2023-04-29T13:45:42;19.60;54.10
1786;DHT22;890;48.158;11.540;2023-04-29T13:48:08;19.50;54.00
1786;DHT22;890;48.158;11.540;2023-04-29T13:50:34;19.60;54.00
1786;DHT22;890;48.158;11.540;2023-04-29T13:53:00;19.60;54.00
1786;DHT22;890;48.158;11.540;2023-04-29T13:55:26;19.70;53.80
1786;DHT22;890;48.158;11.540;2023-04-29T13:57:52;19.80;53.80
1786;DHT22;890;48.158;11.540;2023-04-29T14:00:18;19.70;53.60
1786;DHT22;890;48.158;11.540;2023-04-29T14:02:44;19.60;53.50
1786;DHT22;890;48.158;11.540;2023-04-29T14:05:09;19.60;53.50
1786;DHT22;890;48.158;11.540;2023-04-29T14:07:35;19.50;53.70
1786;DHT22;890;48.158;11.540;2023-04-29T14:10:01;19.60;53.90
1786;DHT22;890;48.158;11.540;2023-04-29T14:12:26;19.60;54.00
1786;DHT22;890;48.158;11.540;2023-04-29T14:14:52;19.50;54.10
1786;DHT22;890;48.158;11.540;2023-04-29T14:17:18;19.50;54.60
1786;DHT22;890;48.158;11.540;2023-04-29T14:19:43;19.50;55.00
1786;DHT22;890;48.158;11.540;2023-04-29T14:22:09;19.50;55.30
1786;DHT22;890;48.158;11.540;2023-04-29T14:24:35;19.60;55.70
1786;DHT22;890;48.158;11.540;2023-04-29T14:27:00;19.60;55.60
1786;DHT22;890;48.158;11.540;2023-04-29T14:29:26;19.70;55.40
1786;DHT22;890;48.158;11.540;2023-04-29T14:31:52;19.80;55.50
1786;DHT22;890;48.158;11.540;2023-04-29T14:34:18;19.80;55.60
1786;DHT22;890;48.158;11.540;2023-04-29T14:36:44;19.70;55.40
1786;DHT22;890;48.158;11.540;2023-04-29T14:39:11;19.70;55.40
1786;DHT22;890;48.158;11.540;2023-04-29T14:41:37;19.70;55.50
1786;DHT22;890;48.158;11.540;2023-04-29T14:44:02;19.60;55.50
1786;DHT22;890;48.158;11.540;2023-04-29T14:46:29;19.60;55.80
1786;DHT22;890;48.158;11.540;2023-04-29T14:48:55;19.50;55.90
1786;DHT22;890;48.158;11.540;2023-04-29T14:51:21;19.60;55.90
1786;DHT22;890;48.158;11.540;2023-04-29T14:53:47;19.60;55.60
1786;DHT22;890;48.158;11.540;2023-04-29T14:56:14;19.60;55.80
1786;DHT22;890;48.158;11.540;2023-04-29T14:58:40;19.60;55.90
1786;DHT22;890;48.158;11.540;2023-04-29T15:01:05;19.60;56.00
1786;DHT22;890;48.158;11.540;2023-04-29T15:03:31;19.50;55.80
1786;DHT22;890;48.158;11.540;2023-04-29T15:05:57;19.40;55.80
1786;DHT22;890;48.158;11.540;2023-04-29T15:08:23;19.30;55.70
1786;DHT22;890;48.158;11.540;2023-04-29T15:10:48;19.20;55.70
1786;DHT22;890;48.158;11.540;2023-04-29T15:13:14;19.20;55.80
1786;DHT22;890;48.158;11.540;2023-04-29T15:15:40;19.10;56.00
1786;DHT22;890;48.158;11.540;2023-04-29T15:18:05;19.10;56.20
1786;DHT22;890;48.158;11.540;2023-04-29T15:20:33;19.20;56.30
1786;DHT22;890;48.158;11.540;2023-04-29T15:22:59;19.20;56.20
1786;DHT22;890;48.158;11.540;2023-04-29T15:25:25;19.20;56.30
1786;DHT22;890;48.158;11.540;2023-04-29T15:27:50;19.20;56.40
1786;DHT22;890;48.158;11.540;2023-04-29T15:30:16;19.20;56.40
1786;DHT22;890;48.158;11.540;2023-04-29T15:32:43;19.20;56.30
1786;DHT22;890;48.158;11.540;2023-04-29T15:35:08;19.20;56.30
1786;DHT22;890;48.158;11.540;2023-04-29T15:37:34;19.20;56.50
1786;DHT22;890;48.158;11.540;2023-04-29T15:40:00;19.10;56.40
1786;DHT22;890;48.158;11.540;2023-04-29T15:42:27;19.10;56.40
1786;DHT22;890;48.158;11.540;2023-04-29T15:44:52;18.90;56.30
1786;DHT22;890;48.158;11.540;2023-04-29T15:47:18;18.80;56.30
1786;DHT22;890;48.158;11.540;2023-04-29T15:49:43;18.60;56.20
1786;DHT22;890;48.158;11.540;2023-04-29T15:52:09;18.50;56.30
1786;DHT22;890;48.158;11.540;2023-04-29T15:54:35;18.40;56.30
1786;DHT22;890;48.158;11.540;2023-04-29T15:57:01;18.40;56.50
1786;DHT22;890;48.158;11.540;2023-04-29T15:59:30;18.30;56.70
1786;DHT22;890;48.158;11.540;2023-04-29T16:01:56;18.30;56.90
1786;DHT22;890;48.158;11.540;2023-04-29T16:04:21;18.30;57.00
1786;DHT22;890;48.158;11.540;2023-04-29T16:06:47;18.30;57.00
1786;DHT22;890;48.158;11.540;2023-04-29T16:09:13;18.40;57.00
1786;DHT22;890;48.158;11.540;2023-04-29T16:11:38;18.40;56.80
1786;DHT22;890;48.158;11.540;2023-04-29T16:14:04;18.40;56.60
1786;DHT22;890;48.158;11.540;2023-04-29T16:16:30;18.40;56.50
1786;DHT22;890;48.158;11.540;2023-04-29T16:18:55;18.40;55.90
1786;DHT22;890;48.158;11.540;2023-04-29T16:21:22;18.50;55.90
1786;DHT22;890;48.158;11.540;2023-04-29T16:23:47;18.70;55.90